Terminal Aerodrome Forecast
Issued by NWS

Home | Current Version | Previous Version | Text Only | Print | Product List | Glossary On
Versions: 1 2 3 4 5 6 7 8 9 10 11 12 13 14 15 16 17 18 19 20 21 22 23
000
FTUS46 KOTX 042334
TAFSFF
TAF
KSFF 042334Z 0500/0524 25008KT P6SM FEW050 FEW200
     FM050300 32007G15KT P6SM FEW100
     FM050900 35005KT P6SM SCT100
     FM051500 02008G18KT P6SM FEW050 FEW100
     FM052000 04010KT P6SM FEW050=

USA.gov is the U.S. government's official web portal to all federal, state and local government web resources and services.